Time;durP1;ratioP1;P1;durP2;ratioP2;P2;SDS_P1;SDS_P2;PMS_P1;PMS_P2;Temp;Humidity;BMP_temperature;BMP_pressure;BME280_temperature;BME280_humidity;BME280_pressure;Samples;Min_cycle;Max_cycle;Signal;HPM_P1;HPM_P2
2022/03/06 00:00:46;;;;;;;8.30;7.40;;;0.60;99.90;;;;;;5054495;28;20481;-83
2022/03/06 00:03:12;;;;;;;9.77;7.80;;;0.60;99.90;;;;;;5070392;28;20380;-82
2022/03/06 00:05:38;;;;;;;9.23;7.00;;;0.50;99.90;;;;;;5068116;28;20370;-82
2022/03/06 00:08:04;;;;;;;9.95;7.30;;;0.40;99.90;;;;;;5068211;28;20401;-83
2022/03/06 00:10:30;;;;;;;8.90;8.00;;;0.40;99.90;;;;;;5073098;28;20493;-83
2022/03/06 00:12:56;;;;;;;9.67;8.53;;;0.40;99.90;;;;;;5041147;28;20386;-82
2022/03/06 00:15:22;;;;;;;8.90;7.67;;;0.60;99.90;;;;;;5057440;28;20886;-82
2022/03/06 00:17:49;;;;;;;9.47;7.87;;;0.60;99.90;;;;;;5057116;28;20415;-81
2022/03/06 00:20:16;;;;;;;9.93;8.60;;;0.50;99.90;;;;;;5049909;28;20479;-81
2022/03/06 00:22:42;;;;;;;9.90;8.32;;;0.40;99.90;;;;;;5067844;28;20393;-83
2022/03/06 00:25:08;;;;;;;12.75;8.93;;;0.40;99.90;;;;;;5057125;28;20376;-82
2022/03/06 00:27:34;;;;;;;11.15;8.75;;;0.60;99.90;;;;;;5059099;28;20440;-80
2022/03/06 00:30:00;;;;;;;11.07;7.60;;;0.70;99.90;;;;;;5069968;28;20803;-82
2022/03/06 00:32:25;;;;;;;9.18;8.15;;;0.60;99.90;;;;;;5069470;28;20876;-81
2022/03/06 00:34:51;;;;;;;12.63;9.80;;;0.60;99.90;;;;;;5072819;28;20374;-83
2022/03/06 00:37:17;;;;;;;10.10;8.52;;;0.70;99.90;;;;;;5072642;28;20396;-83
2022/03/06 00:39:43;;;;;;;10.88;8.80;;;0.60;99.90;;;;;;5054283;28;20389;-83
2022/03/06 00:42:09;;;;;;;11.13;8.98;;;0.70;99.90;;;;;;5071752;28;20386;-81
2022/03/06 00:44:35;;;;;;;9.80;8.68;;;0.70;99.90;;;;;;5064961;28;20370;-81
2022/03/06 00:47:02;;;;;;;10.80;8.93;;;0.60;99.90;;;;;;5062107;28;20406;-82
2022/03/06 00:49:28;;;;;;;9.77;8.65;;;0.70;99.90;;;;;;5057322;28;20390;-82
2022/03/06 00:51:53;;;;;;;10.80;8.63;;;0.70;99.90;;;;;;5069163;28;20414;-83
2022/03/06 00:54:19;;;;;;;11.13;8.60;;;0.70;99.90;;;;;;5062655;28;20472;-84
2022/03/06 00:56:46;;;;;;;9.93;8.77;;;0.80;99.90;;;;;;5044187;28;20392;-83
2022/03/06 00:59:12;;;;;;;9.73;8.82;;;0.80;99.90;;;;;;5073082;28;20385;-81
2022/03/06 01:01:38;;;;;;;11.60;9.32;;;0.80;99.90;;;;;;5071099;28;20405;-84
2022/03/06 01:04:04;;;;;;;11.15;8.60;;;0.90;99.90;;;;;;5053541;28;20461;-83
2022/03/06 01:06:30;;;;;;;11.52;9.18;;;1.00;99.90;;;;;;5054344;28;20987;-83
2022/03/06 01:08:56;;;;;;;9.70;8.43;;;0.90;99.90;;;;;;5071810;28;20706;-83
2022/03/06 01:11:21;;;;;;;9.88;8.63;;;0.90;99.90;;;;;;5062079;28;20393;-84
2022/03/06 01:13:47;;;;;;;10.05;8.57;;;0.80;99.90;;;;;;5061329;28;20707;-81
2022/03/06 01:16:13;;;;;;;10.30;8.38;;;0.80;99.90;;;;;;5071606;28;20378;-81
2022/03/06 01:18:39;;;;;;;9.80;8.38;;;0.90;99.90;;;;;;5071678;28;20389;-82
2022/03/06 01:21:04;;;;;;;10.20;8.32;;;0.80;99.90;;;;;;5084983;28;20468;-82
2022/03/06 01:23:30;;;;;;;9.00;8.10;;;0.90;99.90;;;;;;5092030;28;20462;-84
2022/03/06 01:25:56;;;;;;;9.55;8.27;;;0.90;99.90;;;;;;5092094;28;20415;-85
2022/03/06 01:28:21;;;;;;;8.83;7.90;;;1.00;99.90;;;;;;5091664;28;20364;-81
2022/03/06 01:30:47;;;;;;;9.70;8.70;;;0.90;99.90;;;;;;5073538;28;20392;-83
2022/03/06 01:33:13;;;;;;;9.33;8.00;;;1.00;99.90;;;;;;5073670;28;20464;-83
2022/03/06 01:35:38;;;;;;;8.97;8.07;;;1.00;99.90;;;;;;5086575;28;20393;-81
2022/03/06 01:38:04;;;;;;;10.95;9.35;;;0.90;99.90;;;;;;5087448;28;20891;-82
2022/03/06 01:40:29;;;;;;;11.52;8.50;;;1.00;99.90;;;;;;5068946;28;20441;-81
2022/03/06 01:42:55;;;;;;;9.53;8.20;;;1.00;99.90;;;;;;5071441;28;20860;-84
2022/03/06 01:45:23;;;;;;;9.80;8.43;;;1.10;99.90;;;;;;5052190;28;20382;-84
2022/03/06 01:47:51;;;;;;;11.18;9.05;;;1.10;99.90;;;;;;5070680;28;20396;-82
2022/03/06 01:50:23;;;;;;;9.82;8.52;;;1.10;99.90;;;;;;5071799;28;20417;-82
2022/03/06 01:52:51;;;;;;;10.25;8.13;;;1.10;99.90;;;;;;5070995;28;20390;-84
2022/03/06 01:55:18;;;;;;;10.32;8.38;;;1.10;99.90;;;;;;5071179;28;20998;-84
2022/03/06 01:57:45;;;;;;;12.18;8.73;;;1.00;99.90;;;;;;5071371;28;20782;-81
2022/03/06 02:00:17;;;;;;;11.13;8.65;;;1.00;99.90;;;;;;5086998;28;20378;-81
2022/03/06 02:02:43;;;;;;;10.40;7.93;;;1.00;99.90;;;;;;5071159;28;20378;-82
2022/03/06 02:05:09;;;;;;;9.18;7.95;;;1.00;99.90;;;;;;5071285;28;20473;-84
2022/03/06 02:07:35;;;;;;;10.48;8.15;;;0.90;99.90;;;;;;5085959;28;20446;-84
2022/03/06 02:10:02;;;;;;;8.73;7.00;;;0.90;99.90;;;;;;5072639;28;20372;-83
2022/03/06 02:12:28;;;;;;;10.38;7.75;;;1.00;99.90;;;;;;5072679;28;20826;-82
2022/03/06 02:14:56;;;;;;;8.95;7.18;;;1.20;99.90;;;;;;5073043;28;20368;-81
2022/03/06 02:17:23;;;;;;;8.77;7.63;;;1.20;99.90;;;;;;5069339;28;20898;-82
2022/03/06 02:19:51;;;;;;;10.82;7.22;;;1.10;99.90;;;;;;5070162;28;20431;-82
2022/03/06 02:22:20;;;;;;;9.43;7.30;;;0.90;99.90;;;;;;5071380;28;20386;-82
2022/03/06 02:24:46;;;;;;;9.10;7.40;;;0.80;99.90;;;;;;5083261;28;20386;-82
2022/03/06 02:27:12;;;;;;;9.40;6.90;;;0.80;99.90;;;;;;5071348;28;20439;-81
2022/03/06 02:29:42;;;;;;;9.50;7.17;;;0.90;99.90;;;;;;5072743;28;20383;-82
2022/03/06 02:32:10;;;;;;;8.90;7.25;;;1.00;99.90;;;;;;5071889;28;20533;-84
2022/03/06 02:34:40;;;;;;;8.63;7.07;;;1.10;99.90;;;;;;5072138;28;20886;-81
2022/03/06 02:37:06;;;;;;;9.48;7.15;;;1.00;99.90;;;;;;5090204;28;20505;-81
2022/03/06 02:39:31;;;;;;;8.13;7.25;;;1.10;99.90;;;;;;5089456;28;20475;-83
2022/03/06 02:41:58;;;;;;;9.35;6.95;;;1.10;99.90;;;;;;5090364;28;20459;-83
2022/03/06 02:44:25;;;;;;;8.27;6.33;;;1.00;99.90;;;;;;5090512;28;20360;-84
2022/03/06 02:46:51;;;;;;;9.13;6.60;;;1.00;99.90;;;;;;5090064;28;20479;-83
2022/03/06 02:49:20;;;;;;;7.88;6.50;;;1.10;99.90;;;;;;5090283;28;20373;-81
2022/03/06 02:51:45;;;;;;;9.63;6.82;;;1.00;99.90;;;;;;5071992;28;20411;-82
2022/03/06 02:54:12;;;;;;;6.82;5.70;;;1.00;99.90;;;;;;5075983;28;20837;-81
2022/03/06 02:56:38;;;;;;;7.03;6.03;;;1.00;99.90;;;;;;5051517;28;20383;-83
2022/03/06 02:59:04;;;;;;;8.88;6.97;;;1.00;99.90;;;;;;5070144;28;20378;-81
2022/03/06 03:01:31;;;;;;;7.25;6.10;;;0.80;99.90;;;;;;5051879;28;20371;-84
2022/03/06 03:03:56;;;;;;;7.32;6.43;;;0.70;99.90;;;;;;5069812;28;20459;-84
2022/03/06 03:06:22;;;;;;;8.10;6.47;;;0.80;99.90;;;;;;5051447;28;20469;-80
2022/03/06 03:08:48;;;;;;;7.10;5.63;;;0.80;99.90;;;;;;5064305;28;20396;-82
2022/03/06 03:11:14;;;;;;;9.20;5.95;;;0.80;99.90;;;;;;5072546;28;20411;-81
2022/03/06 03:13:41;;;;;;;6.00;5.38;;;1.00;99.90;;;;;;5071491;28;20422;-81
2022/03/06 03:16:07;;;;;;;7.63;6.00;;;1.20;99.90;;;;;;5090440;28;20373;-84
2022/03/06 03:18:33;;;;;;;6.75;5.55;;;1.20;99.90;;;;;;5076475;28;20398;-82
2022/03/06 03:20:58;;;;;;;7.22;5.80;;;1.10;99.90;;;;;;5069293;28;20868;-83
2022/03/06 03:23:24;;;;;;;6.80;5.20;;;1.00;99.90;;;;;;5069296;28;20370;-80
2022/03/06 03:25:50;;;;;;;8.10;5.80;;;1.00;99.90;;;;;;5069435;28;20388;-83
2022/03/06 03:28:15;;;;;;;6.38;5.40;;;1.00;99.90;;;;;;5051406;28;20431;-82
2022/03/06 03:30:41;;;;;;;6.95;5.13;;;0.90;99.90;;;;;;5068721;28;20402;-84
2022/03/06 03:33:07;;;;;;;8.47;4.70;;;0.80;99.90;;;;;;5069280;28;20483;-84
2022/03/06 03:35:32;;;;;;;7.37;5.13;;;0.90;99.90;;;;;;5089382;28;20368;-82
2022/03/06 03:37:58;;;;;;;8.47;5.50;;;0.90;99.90;;;;;;5070977;28;20383;-80
2022/03/06 03:40:24;;;;;;;7.00;5.43;;;0.80;99.90;;;;;;5089339;28;20425;-82
2022/03/06 03:42:49;;;;;;;6.80;5.57;;;0.70;99.90;;;;;;5088991;28;20770;-81
2022/03/06 03:45:15;;;;;;;8.25;6.10;;;0.70;99.90;;;;;;5070891;28;20366;-83
2022/03/06 03:47:41;;;;;;;10.10;7.00;;;0.70;99.90;;;;;;5052753;28;20445;-84
2022/03/06 03:50:07;;;;;;;8.32;6.15;;;0.60;99.90;;;;;;5068867;28;20382;-84
2022/03/06 03:52:33;;;;;;;7.50;5.40;;;0.60;99.90;;;;;;5069182;28;20374;-82
2022/03/06 03:54:59;;;;;;;7.60;5.30;;;0.60;99.90;;;;;;5088627;28;20373;-81
2022/03/06 03:57:25;;;;;;;5.22;4.50;;;0.70;99.90;;;;;;5071001;28;20380;-81
2022/03/06 03:59:51;;;;;;;5.80;4.60;;;0.60;99.90;;;;;;5073580;28;20432;-82
2022/03/06 04:02:17;;;;;;;6.73;4.90;;;0.70;99.90;;;;;;5071900;28;20402;-83
2022/03/06 04:04:43;;;;;;;6.23;4.40;;;0.70;99.90;;;;;;5070613;28;20965;-83
2022/03/06 04:07:08;;;;;;;5.33;4.70;;;0.70;99.90;;;;;;5086309;28;20957;-81
2022/03/06 04:09:34;;;;;;;5.77;4.33;;;0.80;99.90;;;;;;5068569;28;20465;-85
2022/03/06 04:12:00;;;;;;;7.30;5.00;;;0.80;99.90;;;;;;5068917;28;20453;-84
2022/03/06 04:14:25;;;;;;;5.43;4.63;;;0.80;99.90;;;;;;5050847;28;20375;-82
2022/03/06 04:16:51;;;;;;;8.87;7.13;;;0.80;99.90;;;;;;5069524;28;20362;-81
2022/03/06 04:19:17;;;;;;;8.25;6.40;;;0.90;99.90;;;;;;5088678;28;20811;-81
2022/03/06 04:21:43;;;;;;;8.38;6.38;;;0.90;99.90;;;;;;5088631;28;20368;-84
2022/03/06 04:24:08;;;;;;;8.55;6.60;;;0.80;99.90;;;;;;5088781;28;20422;-83
2022/03/06 04:26:35;;;;;;;7.22;6.03;;;0.80;99.90;;;;;;5088960;28;20866;-82
2022/03/06 04:29:00;;;;;;;10.10;6.82;;;0.80;99.90;;;;;;5070833;28;20788;-81
2022/03/06 04:31:27;;;;;;;7.20;5.43;;;0.70;99.90;;;;;;5081244;28;20496;-83
2022/03/06 04:33:53;;;;;;;5.70;4.80;;;0.70;99.90;;;;;;5069001;28;20459;-84
2022/03/06 04:36:18;;;;;;;6.22;4.90;;;0.70;99.90;;;;;;5068565;28;20733;-83
2022/03/06 04:38:44;;;;;;;5.60;4.70;;;0.70;99.90;;;;;;5068556;28;20482;-81
2022/03/06 04:41:10;;;;;;;5.35;4.28;;;0.70;99.90;;;;;;5068574;28;20377;-84
2022/03/06 04:43:35;;;;;;;6.28;4.88;;;0.70;99.90;;;;;;5068450;28;20377;-84
2022/03/06 04:46:01;;;;;;;5.28;4.20;;;0.60;99.90;;;;;;5081882;28;20369;-81
2022/03/06 04:48:27;;;;;;;6.87;4.33;;;0.60;99.90;;;;;;5088557;28;20380;-82
2022/03/06 04:50:52;;;;;;;6.07;4.53;;;0.70;99.90;;;;;;5089106;28;20455;-83
2022/03/06 04:53:18;;;;;;;6.40;4.40;;;0.70;99.90;;;;;;5088509;28;20419;-80
2022/03/06 04:55:44;;;;;;;6.72;4.63;;;0.70;99.90;;;;;;5088761;28;20364;-83
2022/03/06 04:58:09;;;;;;;6.10;4.25;;;0.70;99.90;;;;;;5078287;28;20378;-80
2022/03/06 05:00:35;;;;;;;5.80;3.83;;;0.80;99.90;;;;;;5080986;28;20833;-83
2022/03/06 05:03:01;;;;;;;4.60;3.60;;;0.90;99.90;;;;;;5068038;28;20463;-82
2022/03/06 05:05:26;;;;;;;4.82;3.50;;;1.00;99.90;;;;;;5088263;28;20777;-80
2022/03/06 05:07:52;;;;;;;5.50;3.90;;;0.90;99.90;;;;;;5088458;28;20417;-82
2022/03/06 05:10:17;;;;;;;4.97;3.77;;;0.90;99.90;;;;;;5088635;28;20943;-83
2022/03/06 05:12:43;;;;;;;5.03;3.50;;;1.00;99.90;;;;;;5070550;28;20393;-82
2022/03/06 05:15:12;;;;;;;5.28;3.70;;;0.90;99.90;;;;;;5068354;28;20441;-81
2022/03/06 05:17:39;;;;;;;5.25;3.70;;;0.90;99.90;;;;;;5067762;28;20366;-82
2022/03/06 05:20:06;;;;;;;4.25;3.45;;;1.00;99.90;;;;;;5071492;28;20896;-81
2022/03/06 05:22:32;;;;;;;5.72;3.40;;;1.00;99.90;;;;;;5083711;28;20392;-81
2022/03/06 05:24:58;;;;;;;4.03;3.40;;;0.90;99.90;;;;;;5091681;28;20390;-83
2022/03/06 05:27:25;;;;;;;5.15;3.53;;;1.00;99.90;;;;;;5057575;28;20447;-82
2022/03/06 05:29:51;;;;;;;3.88;3.47;;;1.00;99.90;;;;;;5071576;28;20370;-81
2022/03/06 05:32:16;;;;;;;3.83;3.38;;;0.90;99.90;;;;;;5053755;28;20406;-83
2022/03/06 05:34:42;;;;;;;4.70;3.45;;;0.90;99.90;;;;;;5071300;28;20440;-82
2022/03/06 05:37:08;;;;;;;3.97;3.50;;;1.00;99.90;;;;;;5091291;28;20430;-81
2022/03/06 05:39:34;;;;;;;4.40;3.67;;;0.90;99.90;;;;;;5092099;28;20422;-83
2022/03/06 05:41:59;;;;;;;5.22;3.60;;;0.90;99.90;;;;;;5072970;28;20708;-83
2022/03/06 05:44:25;;;;;;;4.93;3.70;;;0.90;99.90;;;;;;5091011;28;20385;-81
2022/03/06 05:46:51;;;;;;;4.87;3.60;;;0.90;99.90;;;;;;5090410;28;20380;-83
2022/03/06 05:49:16;;;;;;;6.03;3.90;;;0.90;99.90;;;;;;5051208;28;20376;-85
2022/03/06 05:51:44;;;;;;;4.83;3.70;;;0.90;99.90;;;;;;5050722;28;21023;-83
2022/03/06 05:54:10;;;;;;;4.35;3.20;;;0.90;99.90;;;;;;5051194;28;20368;-83
2022/03/06 05:56:36;;;;;;;5.82;3.97;;;0.90;99.90;;;;;;5050977;28;20382;-83
2022/03/06 05:59:03;;;;;;;6.35;3.70;;;1.10;99.90;;;;;;5032764;28;20879;-83
2022/03/06 06:01:30;;;;;;;5.13;3.97;;;1.00;99.90;;;;;;5064887;28;20888;-81
2022/03/06 06:03:59;;;;;;;5.10;3.65;;;1.10;99.90;;;;;;5091007;28;20395;-83
2022/03/06 06:06:28;;;;;;;5.20;3.92;;;1.20;99.90;;;;;;5072938;28;20384;-83
2022/03/06 06:08:54;;;;;;;4.65;4.03;;;1.10;99.90;;;;;;5090843;28;20404;-81
2022/03/06 06:11:21;;;;;;;4.72;3.75;;;1.30;99.90;;;;;;5090996;28;20391;-81
2022/03/06 06:13:47;;;;;;;5.75;3.80;;;1.20;99.90;;;;;;5090454;28;20369;-80
2022/03/06 06:16:13;;;;;;;5.00;4.25;;;1.10;99.90;;;;;;5075451;28;20380;-84
2022/03/06 06:18:40;;;;;;;5.75;3.75;;;1.10;99.90;;;;;;5070551;28;20437;-81
2022/03/06 06:21:06;;;;;;;6.80;3.78;;;1.00;99.90;;;;;;5052424;28;20406;-80
2022/03/06 06:23:32;;;;;;;5.93;3.97;;;1.10;99.90;;;;;;5082671;28;20386;-82
2022/03/06 06:25:57;;;;;;;4.43;3.70;;;1.10;99.90;;;;;;5072561;28;20460;-83
2022/03/06 06:28:23;;;;;;;5.38;3.83;;;1.10;99.90;;;;;;5090891;28;20876;-81
2022/03/06 06:30:49;;;;;;;6.30;4.10;;;1.10;99.90;;;;;;5072136;28;20406;-81
2022/03/06 06:33:15;;;;;;;5.60;4.50;;;1.20;99.90;;;;;;5090510;28;20377;-80
2022/03/06 06:35:40;;;;;;;8.02;6.32;;;1.20;99.90;;;;;;5091267;28;20491;-81
2022/03/06 06:38:06;;;;;;;8.13;5.53;;;1.20;99.90;;;;;;5079588;28;20406;-83
2022/03/06 06:40:32;;;;;;;8.02;5.70;;;1.30;99.90;;;;;;5070529;28;20367;-84
2022/03/06 06:42:58;;;;;;;7.95;5.25;;;1.30;99.90;;;;;;5070341;28;20393;-84
2022/03/06 06:45:23;;;;;;;7.17;5.00;;;1.30;99.90;;;;;;5070294;28;20385;-81
2022/03/06 06:47:49;;;;;;;6.27;4.90;;;1.20;99.90;;;;;;5069842;28;20907;-84
2022/03/06 06:50:14;;;;;;;7.07;5.65;;;1.30;99.90;;;;;;5072098;28;20385;-82
2022/03/06 06:52:40;;;;;;;11.73;8.05;;;1.20;99.90;;;;;;5063165;28;20401;-82
2022/03/06 06:55:06;;;;;;;7.88;6.28;;;1.30;99.90;;;;;;5052604;28;20390;-85
2022/03/06 06:57:32;;;;;;;7.55;5.55;;;1.50;99.90;;;;;;5070314;28;20371;-81
2022/03/06 06:59:59;;;;;;;8.47;5.60;;;1.50;99.90;;;;;;5052079;28;20536;-81
2022/03/06 07:02:25;;;;;;;5.45;4.50;;;1.50;99.90;;;;;;5057966;28;20376;-84
2022/03/06 07:04:51;;;;;;;6.53;4.70;;;1.40;99.90;;;;;;5090124;28;20386;-83
2022/03/06 07:07:17;;;;;;;5.60;4.60;;;1.30;99.90;;;;;;5071608;28;20468;-84
2022/03/06 07:09:42;;;;;;;7.25;4.55;;;1.50;99.90;;;;;;5090168;28;20452;-82
2022/03/06 07:12:09;;;;;;;5.57;4.32;;;1.50;99.90;;;;;;5090484;28;20396;-82
2022/03/06 07:14:34;;;;;;;5.95;4.28;;;1.50;99.90;;;;;;5061782;28;20378;-84
2022/03/06 07:17:00;;;;;;;5.17;4.20;;;1.60;99.90;;;;;;5051684;28;20408;-83
2022/03/06 07:19:26;;;;;;;5.70;4.30;;;1.60;99.90;;;;;;5069332;28;20386;-83
2022/03/06 07:21:51;;;;;;;5.90;4.32;;;1.80;99.90;;;;;;5051255;28;20389;-83
2022/03/06 07:24:17;;;;;;;5.47;4.30;;;1.80;99.90;;;;;;5069304;28;20485;-81
2022/03/06 07:26:43;;;;;;;5.43;4.13;;;1.50;99.90;;;;;;5055748;28;20957;-81
2022/03/06 07:29:08;;;;;;;6.00;4.20;;;1.50;99.90;;;;;;5089649;28;20383;-82
2022/03/06 07:31:34;;;;;;;5.83;3.90;;;1.70;99.90;;;;;;5071174;28;20388;-84
2022/03/06 07:34:00;;;;;;;5.50;3.92;;;1.70;99.90;;;;;;5071435;28;20870;-83
2022/03/06 07:36:25;;;;;;;5.60;4.15;;;1.90;99.90;;;;;;5065687;28;20460;-83
2022/03/06 07:38:53;;;;;;;4.82;3.95;;;2.10;99.90;;;;;;5051301;28;20384;-83
2022/03/06 07:41:19;;;;;;;4.97;4.13;;;1.90;99.90;;;;;;5068209;28;20381;-83
2022/03/06 07:43:45;;;;;;;4.63;4.20;;;1.90;99.90;;;;;;5084404;28;20501;-82
2022/03/06 07:46:11;;;;;;;7.00;4.10;;;2.00;99.90;;;;;;5069250;28;20427;-82
2022/03/06 07:48:36;;;;;;;4.68;4.13;;;1.90;99.90;;;;;;5068775;28;20386;-85
2022/03/06 07:51:03;;;;;;;5.33;3.90;;;1.80;99.90;;;;;;5080665;28;20461;-84
2022/03/06 07:53:29;;;;;;;5.30;4.10;;;1.80;99.90;;;;;;5089028;28;20800;-84
2022/03/06 07:55:54;;;;;;;5.55;4.20;;;1.70;99.90;;;;;;5089177;28;20372;-84
2022/03/06 07:58:20;;;;;;;5.88;3.97;;;1.70;99.90;;;;;;5089627;28;20388;-82
2022/03/06 08:00:46;;;;;;;5.22;4.05;;;1.70;99.90;;;;;;5079740;28;20480;-84
2022/03/06 08:03:12;;;;;;;6.10;3.93;;;1.80;99.90;;;;;;5090190;28;20404;-83
2022/03/06 08:05:38;;;;;;;6.05;4.00;;;1.80;99.90;;;;;;5089034;28;20447;-83
2022/03/06 08:08:04;;;;;;;7.03;4.78;;;1.60;99.90;;;;;;5072288;28;20802;-83
2022/03/06 08:10:29;;;;;;;8.25;5.95;;;1.70;99.90;;;;;;5071631;28;20454;-82
2022/03/06 08:12:55;;;;;;;6.93;4.90;;;1.70;99.90;;;;;;5074701;28;20382;-82
2022/03/06 08:15:21;;;;;;;4.73;4.20;;;1.90;99.90;;;;;;5054009;28;20398;-81
2022/03/06 08:17:46;;;;;;;5.37;4.10;;;2.10;99.90;;;;;;5082215;28;20438;-85
2022/03/06 08:20:12;;;;;;;6.70;4.15;;;2.00;99.90;;;;;;5085830;28;20366;-81
2022/03/06 08:22:38;;;;;;;5.25;3.80;;;2.00;99.90;;;;;;5062015;28;20375;-81
2022/03/06 08:25:05;;;;;;;4.57;3.65;;;2.10;99.90;;;;;;5069867;28;20445;-80
2022/03/06 08:27:32;;;;;;;4.35;3.70;;;2.10;99.90;;;;;;5071170;28;20382;-85
2022/03/06 08:29:58;;;;;;;4.60;3.72;;;2.10;99.90;;;;;;5072743;28;20466;-80
2022/03/06 08:32:24;;;;;;;5.95;3.50;;;2.30;99.90;;;;;;5073728;28;20456;-83
2022/03/06 08:34:51;;;;;;;4.30;3.55;;;2.40;99.90;;;;;;5076472;28;20427;-83
2022/03/06 08:37:20;;;;;;;4.43;3.63;;;2.50;99.90;;;;;;5074773;28;20394;-80
2022/03/06 08:39:47;;;;;;;4.97;3.20;;;2.50;99.90;;;;;;5055903;28;20362;-81
2022/03/06 08:42:14;;;;;;;4.13;3.30;;;2.50;99.90;;;;;;5077728;28;20378;-79
2022/03/06 08:44:39;;;;;;;7.75;4.18;;;2.50;99.90;;;;;;5073738;28;20390;-81
2022/03/06 08:47:05;;;;;;;3.97;3.50;;;2.60;99.90;;;;;;5075705;28;20409;-81
2022/03/06 08:49:31;;;;;;;4.47;3.55;;;2.50;99.90;;;;;;5072318;28;20427;-82
2022/03/06 08:51:57;;;;;;;4.15;3.45;;;2.40;99.90;;;;;;5070078;28;20543;-84
2022/03/06 08:54:23;;;;;;;4.57;3.50;;;2.30;99.90;;;;;;5074517;28;20408;-84
2022/03/06 08:56:49;;;;;;;5.07;3.70;;;2.40;99.90;;;;;;5075772;28;20378;-83
2022/03/06 08:59:14;;;;;;;4.57;3.47;;;2.40;99.90;;;;;;5055219;28;20424;-86
2022/03/06 09:01:40;;;;;;;5.87;4.00;;;2.60;99.90;;;;;;5077219;28;20909;-80
2022/03/06 09:04:06;;;;;;;4.43;3.60;;;2.60;99.90;;;;;;5063936;28;20412;-78
2022/03/06 09:06:31;;;;;;;5.90;3.80;;;2.40;99.90;;;;;;5077461;28;20436;-80
2022/03/06 09:09:00;;;;;;;5.55;3.88;;;2.50;99.90;;;;;;5075374;28;20982;-82
2022/03/06 09:11:25;;;;;;;4.27;3.40;;;2.60;99.90;;;;;;5076820;28;20428;-82
2022/03/06 09:13:51;;;;;;;5.27;3.67;;;2.70;99.90;;;;;;5079098;28;20378;-81
2022/03/06 09:16:16;;;;;;;5.63;3.65;;;2.90;99.90;;;;;;5080262;28;20393;-81
2022/03/06 09:18:44;;;;;;;4.47;3.67;;;3.20;99.90;;;;;;5097650;28;20383;-81
2022/03/06 09:21:10;;;;;;;5.88;3.85;;;3.00;99.90;;;;;;5079360;28;20388;-83
2022/03/06 09:23:35;;;;;;;5.47;4.05;;;3.00;99.90;;;;;;5075600;28;20383;-80
2022/03/06 09:26:01;;;;;;;6.07;4.50;;;2.90;99.90;;;;;;5266795;22;21062;-80
2022/03/06 09:28:26;;;;;;;5.50;4.20;;;2.80;99.90;;;;;;5028896;28;20402;-81
2022/03/06 09:30:52;;;;;;;4.82;4.28;;;2.80;99.90;;;;;;5012285;28;20449;-81
2022/03/06 09:33:17;;;;;;;6.90;3.90;;;2.70;99.90;;;;;;5025196;28;20414;-81
2022/03/06 09:35:43;;;;;;;6.40;4.00;;;2.60;99.90;;;;;;5054686;28;20469;-81
2022/03/06 09:38:13;;;;;;;5.90;4.10;;;2.50;99.90;;;;;;5053081;28;20386;-81
2022/03/06 09:40:43;;;;;;;6.05;4.40;;;2.60;99.90;;;;;;5053859;28;20379;-81
2022/03/06 09:43:17;;;;;;;5.95;4.47;;;2.50;99.90;;;;;;5068414;28;20446;-82
2022/03/06 09:45:48;;;;;;;4.70;4.22;;;2.60;99.90;;;;;;5051759;28;20852;-81
2022/03/06 09:48:18;;;;;;;5.50;4.35;;;2.60;99.90;;;;;;5046963;28;20397;-80
2022/03/06 09:50:44;;;;;;;8.07;4.30;;;2.40;99.90;;;;;;5060549;28;20418;-81
2022/03/06 09:53:10;;;;;;;6.18;4.13;;;2.50;99.90;;;;;;5068084;28;20377;-81
2022/03/06 09:55:35;;;;;;;4.88;4.15;;;2.70;99.90;;;;;;5059059;28;20380;-81
2022/03/06 09:58:02;;;;;;;5.55;4.40;;;2.70;99.90;;;;;;5068435;28;20402;-80
2022/03/06 10:00:28;;;;;;;5.80;4.35;;;2.60;99.90;;;;;;5043007;28;20529;-81
2022/03/06 10:03:04;;;;;;;6.93;4.03;;;2.80;99.90;;;;;;5032675;28;20494;-80
2022/03/06 10:05:34;;;;;;;5.05;4.00;;;2.80;99.90;;;;;;5045933;28;20387;-81
2022/03/06 10:08:16;;;;;;;6.05;4.03;;;2.70;99.90;;;;;;5050325;28;20741;-82
2022/03/06 10:10:43;;;;;;;5.57;4.10;;;2.90;99.90;;;;;;5029328;28;20444;-81
2022/03/06 10:13:37;;;;;;;5.47;4.70;;;2.80;99.90;;;;;;5050241;28;20406;-81
2022/03/06 10:16:06;;;;;;;5.03;3.90;;;2.90;99.90;;;;;;5042940;28;20409;-80
2022/03/06 10:18:35;;;;;;;5.55;4.43;;;2.80;99.90;;;;;;5050739;28;20474;-81
2022/03/06 10:21:08;;;;;;;6.00;4.40;;;2.60;99.90;;;;;;5050923;28;20372;-80
2022/03/06 10:23:34;;;;;;;6.55;4.47;;;2.70;99.90;;;;;;5047038;28;20429;-81
2022/03/06 10:26:09;;;;;;;4.60;4.10;;;2.60;99.90;;;;;;5049306;28;20379;-81
2022/03/06 10:28:49;;;;;;;5.50;4.25;;;2.80;99.90;;;;;;5030146;28;20439;-81
2022/03/06 10:31:20;;;;;;;6.28;4.93;;;2.80;99.90;;;;;;5031037;28;20414;-81
2022/03/06 10:34:01;;;;;;;6.80;4.57;;;2.80;99.90;;;;;;5033057;28;20885;-82
2022/03/06 10:36:42;;;;;;;5.32;4.30;;;2.80;99.90;;;;;;5033009;28;20387;-82
2022/03/06 10:39:14;;;;;;;4.53;4.13;;;2.90;99.80;;;;;;5033203;28;20398;-82
2022/03/06 10:41:46;;;;;;;4.90;4.32;;;3.20;99.50;;;;;;5032039;28;20383;-82
2022/03/06 10:44:11;;;;;;;5.82;4.50;;;3.50;99.00;;;;;;5050206;28;20487;-83
2022/03/06 10:46:38;;;;;;;5.45;4.32;;;3.40;98.40;;;;;;5049984;28;20472;-83
2022/03/06 10:49:15;;;;;;;5.55;4.63;;;3.50;99.20;;;;;;5044419;28;20542;-81
2022/03/06 10:51:47;;;;;;;6.97;5.80;;;3.80;98.80;;;;;;5050279;28;20405;-82
2022/03/06 10:54:14;;;;;;;5.95;5.40;;;4.10;97.00;;;;;;5052203;28;20390;-81
2022/03/06 10:56:43;;;;;;;7.32;6.38;;;4.20;97.70;;;;;;5052360;28;20394;-82
2022/03/06 10:59:09;;;;;;;7.13;6.43;;;4.30;96.10;;;;;;5051614;28;20402;-82
2022/03/06 11:01:37;;;;;;;7.82;7.03;;;4.20;96.30;;;;;;5058196;28;20402;-82
2022/03/06 11:04:04;;;;;;;8.18;7.22;;;4.10;95.90;;;;;;5064904;28;20463;-81
2022/03/06 11:06:38;;;;;;;6.97;6.27;;;4.30;95.70;;;;;;5050004;28;20462;-82
2022/03/06 11:09:05;;;;;;;5.80;5.20;;;4.30;96.20;;;;;;5049698;28;20386;-81
2022/03/06 11:11:33;;;;;;;5.63;4.80;;;4.30;95.90;;;;;;5043782;28;20400;-82
2022/03/06 11:13:59;;;;;;;5.72;4.90;;;4.10;95.60;;;;;;5048498;28;20512;-82
2022/03/06 11:16:25;;;;;;;6.32;5.05;;;4.10;96.40;;;;;;5049410;28;20491;-82
2022/03/06 11:18:53;;;;;;;6.70;4.70;;;4.20;96.40;;;;;;5048824;28;20470;-82
2022/03/06 11:21:19;;;;;;;5.20;4.65;;;4.20;95.50;;;;;;5049698;28;20391;-82
2022/03/06 11:23:48;;;;;;;5.78;5.03;;;4.20;96.10;;;;;;5048372;28;20396;-84
2022/03/06 11:26:14;;;;;;;4.20;3.70;;;4.40;96.50;;;;;;5031817;28;20808;-84
2022/03/06 11:28:54;;;;;;;6.23;4.43;;;4.50;95.90;;;;;;5058961;28;20449;-84
2022/03/06 11:31:21;;;;;;;6.18;4.30;;;4.20;96.40;;;;;;5050746;28;20411;-84
2022/03/06 11:34:03;;;;;;;4.85;3.83;;;4.20;95.90;;;;;;5031055;28;20392;-83
2022/03/06 11:36:29;;;;;;;5.53;3.80;;;4.10;96.10;;;;;;5049617;28;20388;-83
2022/03/06 11:38:57;;;;;;;4.60;3.70;;;3.90;96.20;;;;;;5044663;28;20756;-84
2022/03/06 11:41:26;;;;;;;4.85;3.58;;;4.00;95.90;;;;;;5051264;28;20394;-84
2022/03/06 11:43:54;;;;;;;4.07;3.58;;;3.90;95.80;;;;;;5049615;28;20401;-83
2022/03/06 11:46:24;;;;;;;6.30;3.60;;;3.80;96.50;;;;;;5031099;28;20422;-84
2022/03/06 11:48:50;;;;;;;5.40;3.70;;;3.80;96.50;;;;;;5050069;28;21308;-83
2022/03/06 11:51:16;;;;;;;4.50;3.35;;;3.80;96.90;;;;;;5048016;28;20885;-83
2022/03/06 11:53:49;;;;;;;3.20;2.90;;;3.90;97.20;;;;;;5051399;28;20378;-83
2022/03/06 11:56:34;;;;;;;4.82;3.38;;;4.00;96.70;;;;;;5031374;28;20718;-83
2022/03/06 11:59:19;;;;;;;5.03;3.43;;;3.90;96.30;;;;;;5030036;28;20755;-83
2022/03/06 12:01:46;;;;;;;3.80;3.00;;;4.00;96.30;;;;;;5028054;28;20448;-84
2022/03/06 12:04:27;;;;;;;5.20;3.10;;;3.90;96.50;;;;;;5030102;28;20861;-83
2022/03/06 12:06:58;;;;;;;4.57;3.10;;;3.90;96.30;;;;;;5046324;28;20444;-84
2022/03/06 12:09:28;;;;;;;3.72;2.83;;;4.10;96.50;;;;;;5048534;28;20394;-83
2022/03/06 12:11:57;;;;;;;3.33;2.78;;;4.00;96.50;;;;;;5045216;28;20416;-84
2022/03/06 12:14:34;;;;;;;4.18;3.22;;;4.00;96.80;;;;;;5013866;28;20407;-84
2022/03/06 12:17:06;;;;;;;3.80;3.10;;;3.90;97.00;;;;;;5049398;28;20391;-83
2022/03/06 12:19:43;;;;;;;3.90;2.60;;;3.90;97.80;;;;;;5046102;28;20395;-84
2022/03/06 12:22:15;;;;;;;4.60;3.50;;;4.00;96.70;;;;;;5047850;28;20478;-84
2022/03/06 12:24:43;;;;;;;4.60;3.07;;;4.00;97.00;;;;;;5049435;28;20419;-84
2022/03/06 12:27:11;;;;;;;4.68;3.60;;;4.00;97.10;;;;;;5035765;28;20395;-84
2022/03/06 12:29:46;;;;;;;3.50;2.83;;;4.10;97.30;;;;;;5051038;28;20407;-83
2022/03/06 12:32:31;;;;;;;3.28;2.70;;;4.10;97.20;;;;;;5049914;28;20450;-83
2022/03/06 12:35:09;;;;;;;5.80;3.20;;;4.00;96.60;;;;;;5058495;28;20394;-83
2022/03/06 12:37:38;;;;;;;3.63;2.85;;;3.60;97.20;;;;;;5056477;28;20392;-82
2022/03/06 12:40:12;;;;;;;5.18;3.25;;;3.30;97.80;;;;;;5034361;28;20478;-83
2022/03/06 12:42:41;;;;;;;3.92;3.22;;;3.30;98.00;;;;;;5066699;28;20390;-82
2022/03/06 12:45:13;;;;;;;5.57;2.93;;;3.40;98.10;;;;;;5061206;28;20410;-83
2022/03/06 12:47:40;;;;;;;4.55;3.00;;;3.40;97.80;;;;;;5063675;28;20388;-83
2022/03/06 12:50:09;;;;;;;3.72;2.70;;;3.30;98.00;;;;;;5059994;28;20496;-83
2022/03/06 12:52:35;;;;;;;4.35;2.90;;;3.20;98.20;;;;;;5052402;28;20457;-82
2022/03/06 12:55:04;;;;;;;3.45;2.95;;;3.20;98.60;;;;;;5053351;28;20379;-82